sensor_id;sensor_type;location;lat;lon;timestamp;temperature;humidity
70807;DHT22;58882;52.170;5.386;2022-11-12T00:00:07;16.00;57.50
70807;DHT22;58882;52.170;5.386;2022-11-12T00:03:20;16.00;57.50
70807;DHT22;58882;52.170;5.386;2022-11-12T00:06:18;16.00;57.50
70807;DHT22;58882;52.170;5.386;2022-11-12T00:09:23;16.00;57.60
70807;DHT22;58882;52.170;5.386;2022-11-12T00:12:22;16.00;57.60
70807;DHT22;58882;52.170;5.386;2022-11-12T00:15:26;16.00;57.40
70807;DHT22;58882;52.170;5.386;2022-11-12T00:18:25;15.90;57.50
70807;DHT22;58882;52.170;5.386;2022-11-12T00:21:36;15.90;57.50
70807;DHT22;58882;52.170;5.386;2022-11-12T00:24:35;15.90;57.70
70807;DHT22;58882;52.170;5.386;2022-11-12T00:27:40;15.90;57.60
70807;DHT22;58882;52.170;5.386;2022-11-12T00:30:40;15.90;57.50
70807;DHT22;58882;52.170;5.386;2022-11-12T00:33:51;15.90;57.50
70807;DHT22;58882;52.170;5.386;2022-11-12T00:36:50;15.90;57.40
70807;DHT22;58882;52.170;5.386;2022-11-12T00:39:55;15.90;57.30
70807;DHT22;58882;52.170;5.386;2022-11-12T00:42:54;15.90;57.60
70807;DHT22;58882;52.170;5.386;2022-11-12T00:46:06;15.80;57.60
70807;DHT22;58882;52.170;5.386;2022-11-12T00:49:05;15.80;57.60
70807;DHT22;58882;52.170;5.386;2022-11-12T00:52:09;15.80;57.60
70807;DHT22;58882;52.170;5.386;2022-11-12T00:55:08;15.70;57.70
70807;DHT22;58882;52.170;5.386;2022-11-12T00:58:13;15.70;57.70
70807;DHT22;58882;52.170;5.386;2022-11-12T01:01:14;15.70;57.90
70807;DHT22;58882;52.170;5.386;2022-11-12T01:04:18;15.70;57.90
70807;DHT22;58882;52.170;5.386;2022-11-12T01:07:17;15.60;57.80
70807;DHT22;58882;52.170;5.386;2022-11-12T01:10:21;15.60;57.80
70807;DHT22;58882;52.170;5.386;2022-11-12T01:13:20;15.60;57.70
70807;DHT22;58882;52.170;5.386;2022-11-12T01:16:35;15.60;57.70
70807;DHT22;58882;52.170;5.386;2022-11-12T01:19:34;15.60;57.70
70807;DHT22;58882;52.170;5.386;2022-11-12T01:22:39;15.50;57.60
70807;DHT22;58882;52.170;5.386;2022-11-12T01:25:38;15.50;57.90
70807;DHT22;58882;52.170;5.386;2022-11-12T01:28:43;15.50;58.00
70807;DHT22;58882;52.170;5.386;2022-11-12T01:31:42;15.50;57.90
70807;DHT22;58882;52.170;5.386;2022-11-12T01:34:46;15.40;57.80
70807;DHT22;58882;52.170;5.386;2022-11-12T01:37:45;15.40;57.80
70807;DHT22;58882;52.170;5.386;2022-11-12T01:40:57;15.40;57.80
70807;DHT22;58882;52.170;5.386;2022-11-12T01:44:27;15.30;57.70
70807;DHT22;58882;52.170;5.386;2022-11-12T01:47:41;15.30;57.90
70807;DHT22;58882;52.170;5.386;2022-11-12T01:50:37;15.30;57.90
70807;DHT22;58882;52.170;5.386;2022-11-12T01:53:54;15.30;57.80
70807;DHT22;58882;52.170;5.386;2022-11-12T01:56:56;15.30;57.90
70807;DHT22;58882;52.170;5.386;2022-11-12T02:00:10;15.30;57.80
70807;DHT22;58882;52.170;5.386;2022-11-12T02:03:05;15.20;57.60
70807;DHT22;58882;52.170;5.386;2022-11-12T02:06:19;15.20;57.60
70807;DHT22;58882;52.170;5.386;2022-11-12T02:09:18;15.10;57.60
70807;DHT22;58882;52.170;5.386;2022-11-12T02:12:23;15.10;57.70
70807;DHT22;58882;52.170;5.386;2022-11-12T02:15:41;15.10;57.70
70807;DHT22;58882;52.170;5.386;2022-11-12T02:18:46;15.10;57.70
70807;DHT22;58882;52.170;5.386;2022-11-12T02:21:45;15.10;57.60
70807;DHT22;58882;52.170;5.386;2022-11-12T02:24:57;15.10;57.70
70807;DHT22;58882;52.170;5.386;2022-11-12T02:27:51;15.00;57.70
70807;DHT22;58882;52.170;5.386;2022-11-12T02:31:03;15.00;57.70
70807;DHT22;58882;52.170;5.386;2022-11-12T02:34:15;15.00;57.80
70807;DHT22;58882;52.170;5.386;2022-11-12T02:37:07;15.00;57.90
70807;DHT22;58882;52.170;5.386;2022-11-12T02:40:19;14.90;57.80
70807;DHT22;58882;52.170;5.386;2022-11-12T02:43:11;15.00;57.80
70807;DHT22;58882;52.170;5.386;2022-11-12T02:46:23;14.90;58.80
70807;DHT22;58882;52.170;5.386;2022-11-12T02:49:16;14.90;57.90
70807;DHT22;58882;52.170;5.386;2022-11-12T02:52:28;14.90;58.00
70807;DHT22;58882;52.170;5.386;2022-11-12T02:55:20;14.90;58.20
70807;DHT22;58882;52.170;5.386;2022-11-12T02:58:32;15.00;58.30
70807;DHT22;58882;52.170;5.386;2022-11-12T03:01:31;15.00;58.20
70807;DHT22;58882;52.170;5.386;2022-11-12T03:04:36;15.00;58.10
70807;DHT22;58882;52.170;5.386;2022-11-12T03:07:40;15.00;58.30
70807;DHT22;58882;52.170;5.386;2022-11-12T03:10:52;14.90;58.10
70807;DHT22;58882;52.170;5.386;2022-11-12T03:13:44;15.00;58.20
70807;DHT22;58882;52.170;5.386;2022-11-12T03:16:57;15.00;58.10
70807;DHT22;58882;52.170;5.386;2022-11-12T03:19:49;15.00;58.10
70807;DHT22;58882;52.170;5.386;2022-11-12T03:23:04;15.00;58.00
70807;DHT22;58882;52.170;5.386;2022-11-12T03:26:03;14.90;58.00
70807;DHT22;58882;52.170;5.386;2022-11-12T03:29:08;14.90;57.90
70807;DHT22;58882;52.170;5.386;2022-11-12T03:32:07;14.90;57.90
70807;DHT22;58882;52.170;5.386;2022-11-12T03:35:20;14.90;57.80
70807;DHT22;58882;52.170;5.386;2022-11-12T03:38:12;14.90;57.80
70807;DHT22;58882;52.170;5.386;2022-11-12T03:41:24;14.80;57.80
70807;DHT22;58882;52.170;5.386;2022-11-12T03:44:23;14.80;58.00
70807;DHT22;58882;52.170;5.386;2022-11-12T03:47:35;14.80;58.00
70807;DHT22;58882;52.170;5.386;2022-11-12T03:50:29;14.80;58.90
70807;DHT22;58882;52.170;5.386;2022-11-12T03:53:42;14.70;57.90
70807;DHT22;58882;52.170;5.386;2022-11-12T03:56:34;14.70;57.90
70807;DHT22;58882;52.170;5.386;2022-11-12T03:59:48;14.70;57.80
70807;DHT22;58882;52.170;5.386;2022-11-12T04:02:47;14.70;57.80
70807;DHT22;58882;52.170;5.386;2022-11-12T04:05:52;14.70;57.70
70807;DHT22;58882;52.170;5.386;2022-11-12T04:09:10;14.70;57.70
70807;DHT22;58882;52.170;5.386;2022-11-12T04:12:15;14.70;57.70
70807;DHT22;58882;52.170;5.386;2022-11-12T04:15:32;14.70;57.60
70807;DHT22;58882;52.170;5.386;2022-11-12T04:18:37;14.70;57.60
70807;DHT22;58882;52.170;5.386;2022-11-12T04:22:06;14.70;57.60
70807;DHT22;58882;52.170;5.386;2022-11-12T04:25:18;14.70;57.50
70807;DHT22;58882;52.170;5.386;2022-11-12T04:28:36;14.70;57.40
70807;DHT22;58882;52.170;5.386;2022-11-12T04:32:00;14.70;57.50
70807;DHT22;58882;52.170;5.386;2022-11-12T04:34:59;14.60;57.30
70807;DHT22;58882;52.170;5.386;2022-11-12T04:38:12;14.60;57.30
70807;DHT22;58882;52.170;5.386;2022-11-12T04:41:11;14.60;57.40
70807;DHT22;58882;52.170;5.386;2022-11-12T04:44:41;14.60;57.30
70807;DHT22;58882;52.170;5.386;2022-11-12T04:47:54;14.60;57.40
70807;DHT22;58882;52.170;5.386;2022-11-12T04:51:06;14.60;57.30
70807;DHT22;58882;52.170;5.386;2022-11-12T04:54:25;14.60;57.40
70807;DHT22;58882;52.170;5.386;2022-11-12T04:57:37;14.60;57.30
70807;DHT22;58882;52.170;5.386;2022-11-12T05:00:29;14.60;57.60
70807;DHT22;58882;52.170;5.386;2022-11-12T05:03:41;14.60;57.40
70807;DHT22;58882;52.170;5.386;2022-11-12T05:06:33;14.60;57.50
70807;DHT22;58882;52.170;5.386;2022-11-12T05:09:58;14.60;57.50
70807;DHT22;58882;52.170;5.386;2022-11-12T05:12:57;14.60;57.40
70807;DHT22;58882;52.170;5.386;2022-11-12T05:16:09;14.60;57.10
70807;DHT22;58882;52.170;5.386;2022-11-12T05:19:08;14.60;56.90
70807;DHT22;58882;52.170;5.386;2022-11-12T05:22:20;14.60;56.90
70807;DHT22;58882;52.170;5.386;2022-11-12T05:25:33;14.60;57.10
70807;DHT22;58882;52.170;5.386;2022-11-12T05:28:46;14.60;57.10
70807;DHT22;58882;52.170;5.386;2022-11-12T05:31:51;14.60;56.90
70807;DHT22;58882;52.170;5.386;2022-11-12T05:34:50;14.60;56.90
70807;DHT22;58882;52.170;5.386;2022-11-12T05:37:55;14.70;56.90
70807;DHT22;58882;52.170;5.386;2022-11-12T05:40:47;14.70;57.80
70807;DHT22;58882;52.170;5.386;2022-11-12T05:43:58;14.70;56.80
70807;DHT22;58882;52.170;5.386;2022-11-12T05:46:57;14.70;56.50
70807;DHT22;58882;52.170;5.386;2022-11-12T05:50:09;14.60;56.40
70807;DHT22;58882;52.170;5.386;2022-11-12T05:53:01;14.60;56.50
70807;DHT22;58882;52.170;5.386;2022-11-12T05:56:12;14.60;56.60
70807;DHT22;58882;52.170;5.386;2022-11-12T05:59:12;14.60;56.80
70807;DHT22;58882;52.170;5.386;2022-11-12T06:02:18;14.60;56.90
70807;DHT22;58882;52.170;5.386;2022-11-12T06:05:17;14.50;57.00
70807;DHT22;58882;52.170;5.386;2022-11-12T06:08:23;14.60;57.00
70807;DHT22;58882;52.170;5.386;2022-11-12T06:11:22;14.50;56.60
70807;DHT22;58882;52.170;5.386;2022-11-12T06:14:26;14.50;56.60
70807;DHT22;58882;52.170;5.386;2022-11-12T06:17:25;14.50;56.60
70807;DHT22;58882;52.170;5.386;2022-11-12T06:20:37;14.50;56.60
70807;DHT22;58882;52.170;5.386;2022-11-12T06:23:53;14.50;56.60
70807;DHT22;58882;52.170;5.386;2022-11-12T06:27:05;14.50;56.30
70807;DHT22;58882;52.170;5.386;2022-11-12T06:30:05;14.50;56.30
70807;DHT22;58882;52.170;5.386;2022-11-12T06:33:10;14.50;56.20
70807;DHT22;58882;52.170;5.386;2022-11-12T06:36:10;14.50;56.00
70807;DHT22;58882;52.170;5.386;2022-11-12T06:39:15;14.50;55.80
70807;DHT22;58882;52.170;5.386;2022-11-12T06:42:14;14.50;55.70
70807;DHT22;58882;52.170;5.386;2022-11-12T06:45:19;14.50;55.70
70807;DHT22;58882;52.170;5.386;2022-11-12T06:48:18;14.50;55.60
70807;DHT22;58882;52.170;5.386;2022-11-12T06:51:23;14.50;55.60
70807;DHT22;58882;52.170;5.386;2022-11-12T06:54:23;14.50;55.60
70807;DHT22;58882;52.170;5.386;2022-11-12T06:57:28;14.40;55.60
70807;DHT22;58882;52.170;5.386;2022-11-12T07:00:27;14.40;55.60
70807;DHT22;58882;52.170;5.386;2022-11-12T07:03:32;14.40;55.60
70807;DHT22;58882;52.170;5.386;2022-11-12T07:06:33;14.40;56.50
70807;DHT22;58882;52.170;5.386;2022-11-12T07:09:37;14.40;55.40
70807;DHT22;58882;52.170;5.386;2022-11-12T07:12:36;14.40;55.40
70807;DHT22;58882;52.170;5.386;2022-11-12T07:15:47;14.40;55.50
70807;DHT22;58882;52.170;5.386;2022-11-12T07:18:47;14.40;55.50
70807;DHT22;58882;52.170;5.386;2022-11-12T07:21:52;14.50;56.40
70807;DHT22;58882;52.170;5.386;2022-11-12T07:24:51;14.60;56.70
70807;DHT22;58882;52.170;5.386;2022-11-12T07:27:58;14.80;56.40
70807;DHT22;58882;52.170;5.386;2022-11-12T07:31:05;15.00;56.00
70807;DHT22;58882;52.170;5.386;2022-11-12T07:34:17;15.20;55.70
70807;DHT22;58882;52.170;5.386;2022-11-12T07:37:16;15.40;55.30
70807;DHT22;58882;52.170;5.386;2022-11-12T07:40:29;15.60;55.00
70807;DHT22;58882;52.170;5.386;2022-11-12T07:43:21;15.70;54.60
70807;DHT22;58882;52.170;5.386;2022-11-12T07:46:32;15.80;54.40
70807;DHT22;58882;52.170;5.386;2022-11-12T07:49:31;15.90;54.00
70807;DHT22;58882;52.170;5.386;2022-11-12T07:52:36;16.00;53.80
70807;DHT22;58882;52.170;5.386;2022-11-12T07:55:35;16.10;53.60
70807;DHT22;58882;52.170;5.386;2022-11-12T07:58:41;16.20;53.40
70807;DHT22;58882;52.170;5.386;2022-11-12T08:01:40;16.30;53.20
70807;DHT22;58882;52.170;5.386;2022-11-12T08:04:45;16.40;53.00
70807;DHT22;58882;52.170;5.386;2022-11-12T08:07:44;16.50;52.70
70807;DHT22;58882;52.170;5.386;2022-11-12T08:10:57;16.60;52.70
70807;DHT22;58882;52.170;5.386;2022-11-12T08:13:50;16.60;53.50
70807;DHT22;58882;52.170;5.386;2022-11-12T08:17:02;16.70;52.40
70807;DHT22;58882;52.170;5.386;2022-11-12T08:19:54;16.70;52.10
70807;DHT22;58882;52.170;5.386;2022-11-12T08:23:06;16.80;52.00
70807;DHT22;58882;52.170;5.386;2022-11-12T08:26:07;16.80;51.80
70807;DHT22;58882;52.170;5.386;2022-11-12T08:29:12;16.90;51.70
70807;DHT22;58882;52.170;5.386;2022-11-12T08:32:17;16.90;51.60
70807;DHT22;58882;52.170;5.386;2022-11-12T08:35:16;17.00;51.70
70807;DHT22;58882;52.170;5.386;2022-11-12T08:38:21;17.10;51.70
70807;DHT22;58882;52.170;5.386;2022-11-12T08:41:13;17.20;52.60
70807;DHT22;58882;52.170;5.386;2022-11-12T08:44:25;17.40;51.30
70807;DHT22;58882;52.170;5.386;2022-11-12T08:47:24;17.60;51.00
70807;DHT22;58882;52.170;5.386;2022-11-12T08:50:36;17.80;50.70
70807;DHT22;58882;52.170;5.386;2022-11-12T08:53:35;18.00;51.20
70807;DHT22;58882;52.170;5.386;2022-11-12T08:56:47;18.20;50.00
70807;DHT22;58882;52.170;5.386;2022-11-12T08:59:39;18.50;49.40
70807;DHT22;58882;52.170;5.386;2022-11-12T09:02:51;18.80;49.00
70807;DHT22;58882;52.170;5.386;2022-11-12T09:05:43;19.20;49.30
70807;DHT22;58882;52.170;5.386;2022-11-12T09:08:55;19.50;47.60
70807;DHT22;58882;52.170;5.386;2022-11-12T09:11:47;19.90;47.00
70807;DHT22;58882;52.170;5.386;2022-11-12T09:15:10;20.20;46.70
70807;DHT22;58882;52.170;5.386;2022-11-12T09:18:22;20.50;46.30
70807;DHT22;58882;52.170;5.386;2022-11-12T09:21:34;20.80;46.00
70807;DHT22;58882;52.170;5.386;2022-11-12T09:24:25;21.10;45.50
70807;DHT22;58882;52.170;5.386;2022-11-12T09:27:37;21.40;45.30
70807;DHT22;58882;52.170;5.386;2022-11-12T09:30:45;21.60;44.90
70807;DHT22;58882;52.170;5.386;2022-11-12T09:33:57;21.80;44.50
70807;DHT22;58882;52.170;5.386;2022-11-12T09:36:56;21.80;44.10
70807;DHT22;58882;52.170;5.386;2022-11-12T09:40:15;21.90;43.90
70807;DHT22;58882;52.170;5.386;2022-11-12T09:43:14;22.00;43.60
70807;DHT22;58882;52.170;5.386;2022-11-12T09:46:32;22.10;43.20
70807;DHT22;58882;52.170;5.386;2022-11-12T09:53:11;22.20;42.70
70807;DHT22;58882;52.170;5.386;2022-11-12T09:56:13;22.30;42.30
70807;DHT22;58882;52.170;5.386;2022-11-12T09:59:23;22.40;42.20
70807;DHT22;58882;52.170;5.386;2022-11-12T10:02:41;22.40;41.90
70807;DHT22;58882;52.170;5.386;2022-11-12T10:05:58;22.40;41.70
70807;DHT22;58882;52.170;5.386;2022-11-12T10:09:13;22.40;41.60
70807;DHT22;58882;52.170;5.386;2022-11-12T10:16:02;22.40;41.30
70807;DHT22;58882;52.170;5.386;2022-11-12T10:19:52;22.50;41.30
70807;DHT22;58882;52.170;5.386;2022-11-12T10:23:05;22.60;41.10
70807;DHT22;58882;52.170;5.386;2022-11-12T10:26:23;22.60;40.90
70807;DHT22;58882;52.170;5.386;2022-11-12T10:29:37;22.70;40.60
70807;DHT22;58882;52.170;5.386;2022-11-12T10:32:51;22.70;40.40
70807;DHT22;58882;52.170;5.386;2022-11-12T10:35:51;22.50;40.40
70807;DHT22;58882;52.170;5.386;2022-11-12T10:38:56;22.40;40.60
70807;DHT22;58882;52.170;5.386;2022-11-12T10:42:04;22.20;40.80
70807;DHT22;58882;52.170;5.386;2022-11-12T10:45:21;22.10;41.00
70807;DHT22;58882;52.170;5.386;2022-11-12T10:48:28;22.00;41.20
70807;DHT22;58882;52.170;5.386;2022-11-12T10:51:41;21.90;41.20
70807;DHT22;58882;52.170;5.386;2022-11-12T10:55:24;21.80;42.40
70807;DHT22;58882;52.170;5.386;2022-11-12T10:58:27;21.70;41.40
70807;DHT22;58882;52.170;5.386;2022-11-12T11:01:26;21.70;42.20
70807;DHT22;58882;52.170;5.386;2022-11-12T11:04:42;21.70;45.50
70807;DHT22;58882;52.170;5.386;2022-11-12T11:07:48;21.60;46.80
70807;DHT22;58882;52.170;5.386;2022-11-12T11:14:32;21.40;47.80
70807;DHT22;58882;52.170;5.386;2022-11-12T11:17:37;21.30;48.20
70807;DHT22;58882;52.170;5.386;2022-11-12T11:20:46;21.30;48.70
70807;DHT22;58882;52.170;5.386;2022-11-12T11:27:31;21.10;49.60
70807;DHT22;58882;52.170;5.386;2022-11-12T11:30:54;21.00;49.90
70807;DHT22;58882;52.170;5.386;2022-11-12T11:41:41;20.80;50.90
70807;DHT22;58882;52.170;5.386;2022-11-12T11:51:48;20.60;51.80
70807;DHT22;58882;52.170;5.386;2022-11-12T12:08:07;20.50;53.00
70807;DHT22;58882;52.170;5.386;2022-11-12T12:18:20;20.60;53.60
70807;DHT22;58882;52.170;5.386;2022-11-12T12:21:23;20.60;53.60
70807;DHT22;58882;52.170;5.386;2022-11-12T12:27:54;20.70;53.80
70807;DHT22;58882;52.170;5.386;2022-11-12T12:31:13;20.70;54.00
70807;DHT22;58882;52.170;5.386;2022-11-12T12:38:00;20.80;54.20
70807;DHT22;58882;52.170;5.386;2022-11-12T12:41:00;20.80;54.40
70807;DHT22;58882;52.170;5.386;2022-11-12T12:44:13;20.80;54.50
70807;DHT22;58882;52.170;5.386;2022-11-12T12:47:13;20.80;54.60
70807;DHT22;58882;52.170;5.386;2022-11-12T12:50:19;20.80;54.90
70807;DHT22;58882;52.170;5.386;2022-11-12T12:56:43;20.80;55.20
70807;DHT22;58882;52.170;5.386;2022-11-12T12:59:42;20.80;55.30
70807;DHT22;58882;52.170;5.386;2022-11-12T13:02:47;20.80;55.30
70807;DHT22;58882;52.170;5.386;2022-11-12T13:06:05;20.80;55.50
70807;DHT22;58882;52.170;5.386;2022-11-12T13:12:15;20.80;55.80
70807;DHT22;58882;52.170;5.386;2022-11-12T13:15:40;20.80;55.70
70807;DHT22;58882;52.170;5.386;2022-11-12T13:21:46;20.90;55.90
70807;DHT22;58882;52.170;5.386;2022-11-12T13:28:21;20.90;56.00
70807;DHT22;58882;52.170;5.386;2022-11-12T13:31:28;20.90;56.00
70807;DHT22;58882;52.170;5.386;2022-11-12T13:34:39;20.90;56.00
70807;DHT22;58882;52.170;5.386;2022-11-12T13:37:32;20.90;56.00
70807;DHT22;58882;52.170;5.386;2022-11-12T13:40:54;20.90;56.00
70807;DHT22;58882;52.170;5.386;2022-11-12T13:43:55;20.80;56.00
70807;DHT22;58882;52.170;5.386;2022-11-12T13:47:00;20.90;56.10
70807;DHT22;58882;52.170;5.386;2022-11-12T13:50:00;20.80;56.00
70807;DHT22;58882;52.170;5.386;2022-11-12T13:53:07;20.80;56.10
70807;DHT22;58882;52.170;5.386;2022-11-12T13:56:11;20.80;56.10
70807;DHT22;58882;52.170;5.386;2022-11-12T13:59:19;20.80;56.10
70807;DHT22;58882;52.170;5.386;2022-11-12T14:02:22;20.80;56.10
70807;DHT22;58882;52.170;5.386;2022-11-12T14:05:29;20.80;56.10
70807;DHT22;58882;52.170;5.386;2022-11-12T14:08:44;20.80;56.10
70807;DHT22;58882;52.170;5.386;2022-11-12T14:15:41;20.70;56.20
70807;DHT22;58882;52.170;5.386;2022-11-12T14:19:16;20.70;56.10
70807;DHT22;58882;52.170;5.386;2022-11-12T14:22:19;20.70;56.10
70807;DHT22;58882;52.170;5.386;2022-11-12T14:25:32;20.70;56.10
70807;DHT22;58882;52.170;5.386;2022-11-12T14:28:34;20.60;56.00
70807;DHT22;58882;52.170;5.386;2022-11-12T14:31:33;20.60;56.00
70807;DHT22;58882;52.170;5.386;2022-11-12T14:34:46;20.60;56.10
70807;DHT22;58882;52.170;5.386;2022-11-12T14:37:38;20.60;57.20
70807;DHT22;58882;52.170;5.386;2022-11-12T14:41:00;20.60;56.20
70807;DHT22;58882;52.170;5.386;2022-11-12T14:43:54;20.60;56.20
70807;DHT22;58882;52.170;5.386;2022-11-12T14:47:10;20.50;56.10
70807;DHT22;58882;52.170;5.386;2022-11-12T14:53:42;20.50;56.10
70807;DHT22;58882;52.170;5.386;2022-11-12T14:56:40;20.40;56.10
70807;DHT22;58882;52.170;5.386;2022-11-12T14:59:52;20.40;56.10
70807;DHT22;58882;52.170;5.386;2022-11-12T15:02:51;20.40;56.10
70807;DHT22;58882;52.170;5.386;2022-11-12T15:06:08;20.40;56.10
70807;DHT22;58882;52.170;5.386;2022-11-12T15:09:07;20.30;56.00
70807;DHT22;58882;52.170;5.386;2022-11-12T15:12:24;20.30;56.00
70807;DHT22;58882;52.170;5.386;2022-11-12T15:15:23;20.30;56.10
70807;DHT22;58882;52.170;5.386;2022-11-12T15:18:29;20.30;56.00
70807;DHT22;58882;52.170;5.386;2022-11-12T15:21:28;20.20;56.00
70807;DHT22;58882;52.170;5.386;2022-11-12T15:24:40;20.20;56.00
70807;DHT22;58882;52.170;5.386;2022-11-12T15:27:42;20.20;56.10
70807;DHT22;58882;52.170;5.386;2022-11-12T15:37:40;20.10;55.90
70807;DHT22;58882;52.170;5.386;2022-11-12T15:40:42;20.10;56.00
70807;DHT22;58882;52.170;5.386;2022-11-12T15:43:56;20.10;57.00
70807;DHT22;58882;52.170;5.386;2022-11-12T15:46:48;20.00;55.90
70807;DHT22;58882;52.170;5.386;2022-11-12T15:49:59;20.00;55.90
70807;DHT22;58882;52.170;5.386;2022-11-12T15:52:58;20.00;55.90
70807;DHT22;58882;52.170;5.386;2022-11-12T15:56:09;20.00;55.80
70807;DHT22;58882;52.170;5.386;2022-11-12T15:59:14;20.00;55.80
70807;DHT22;58882;52.170;5.386;2022-11-12T16:02:19;20.00;55.80
70807;DHT22;58882;52.170;5.386;2022-11-12T16:05:18;20.00;55.70
70807;DHT22;58882;52.170;5.386;2022-11-12T16:08:23;19.90;55.50
70807;DHT22;58882;52.170;5.386;2022-11-12T16:11:23;19.90;55.50
70807;DHT22;58882;52.170;5.386;2022-11-12T16:14:41;19.90;55.40
70807;DHT22;58882;52.170;5.386;2022-11-12T16:17:32;19.90;55.20
70807;DHT22;58882;52.170;5.386;2022-11-12T16:20:44;19.80;54.90
70807;DHT22;58882;52.170;5.386;2022-11-12T16:23:36;19.80;54.20
70807;DHT22;58882;52.170;5.386;2022-11-12T16:26:48;19.80;53.80
70807;DHT22;58882;52.170;5.386;2022-11-12T16:29:40;19.80;53.40
70807;DHT22;58882;52.170;5.386;2022-11-12T16:32:55;19.80;54.20
70807;DHT22;58882;52.170;5.386;2022-11-12T16:36:12;19.80;53.00
70807;DHT22;58882;52.170;5.386;2022-11-12T16:39:05;19.70;52.70
70807;DHT22;58882;52.170;5.386;2022-11-12T16:42:16;19.80;52.80
70807;DHT22;58882;52.170;5.386;2022-11-12T16:45:08;19.80;52.30
70807;DHT22;58882;52.170;5.386;2022-11-12T16:48:21;19.70;52.10
70807;DHT22;58882;52.170;5.386;2022-11-12T16:51:21;19.70;51.80
70807;DHT22;58882;52.170;5.386;2022-11-12T16:54:26;19.80;51.70
70807;DHT22;58882;52.170;5.386;2022-11-12T16:57:25;19.70;51.30
70807;DHT22;58882;52.170;5.386;2022-11-12T17:00:37;19.80;51.60
70807;DHT22;58882;52.170;5.386;2022-11-12T17:03:30;19.80;51.40
70807;DHT22;58882;52.170;5.386;2022-11-12T17:06:41;19.80;51.30
70807;DHT22;58882;52.170;5.386;2022-11-12T17:09:35;19.70;51.10
70807;DHT22;58882;52.170;5.386;2022-11-12T17:12:47;19.80;51.10
70807;DHT22;58882;52.170;5.386;2022-11-12T17:15:39;19.80;51.20
70807;DHT22;58882;52.170;5.386;2022-11-12T17:18:53;19.80;51.10
70807;DHT22;58882;52.170;5.386;2022-11-12T17:21:45;19.80;50.90
70807;DHT22;58882;52.170;5.386;2022-11-12T17:24:57;19.80;50.90
70807;DHT22;58882;52.170;5.386;2022-11-12T17:27:49;19.70;50.80
70807;DHT22;58882;52.170;5.386;2022-11-12T17:31:17;19.70;50.80
70807;DHT22;58882;52.170;5.386;2022-11-12T17:34:29;19.70;50.80
70807;DHT22;58882;52.170;5.386;2022-11-12T17:37:27;19.70;50.70
70807;DHT22;58882;52.170;5.386;2022-11-12T17:40:32;19.70;50.70
70807;DHT22;58882;52.170;5.386;2022-11-12T17:43:31;19.70;50.70
70807;DHT22;58882;52.170;5.386;2022-11-12T17:46:36;19.70;50.80
70807;DHT22;58882;52.170;5.386;2022-11-12T17:49:35;19.60;50.70
70807;DHT22;58882;52.170;5.386;2022-11-12T17:52:39;19.60;50.70
70807;DHT22;58882;52.170;5.386;2022-11-12T17:55:38;19.60;50.70
70807;DHT22;58882;52.170;5.386;2022-11-12T17:58:44;19.60;50.70
70807;DHT22;58882;52.170;5.386;2022-11-12T18:01:43;19.60;50.70
70807;DHT22;58882;52.170;5.386;2022-11-12T18:04:48;19.60;51.70
70807;DHT22;58882;52.170;5.386;2022-11-12T18:07:47;19.60;50.80
70807;DHT22;58882;52.170;5.386;2022-11-12T18:10:51;19.60;50.80
70807;DHT22;58882;52.170;5.386;2022-11-12T18:13:50;19.50;50.70
70807;DHT22;58882;52.170;5.386;2022-11-12T18:16:57;19.50;50.80
70807;DHT22;58882;52.170;5.386;2022-11-12T18:19:56;19.50;50.70
70807;DHT22;58882;52.170;5.386;2022-11-12T18:23:09;19.50;50.80
70807;DHT22;58882;52.170;5.386;2022-11-12T18:26:01;19.50;50.80
70807;DHT22;58882;52.170;5.386;2022-11-12T18:29:12;19.50;50.80
70807;DHT22;58882;52.170;5.386;2022-11-12T18:32:12;19.40;50.80
70807;DHT22;58882;52.170;5.386;2022-11-12T18:35:17;19.40;51.80
70807;DHT22;58882;52.170;5.386;2022-11-12T18:38:20;19.40;50.80
70807;DHT22;58882;52.170;5.386;2022-11-12T18:41:25;19.40;51.90
70807;DHT22;58882;52.170;5.386;2022-11-12T18:44:24;19.40;51.80
70807;DHT22;58882;52.170;5.386;2022-11-12T18:47:30;19.40;50.90
70807;DHT22;58882;52.170;5.386;2022-11-12T18:50:29;19.40;51.00
70807;DHT22;58882;52.170;5.386;2022-11-12T18:53:42;19.40;50.90
70807;DHT22;58882;52.170;5.386;2022-11-12T18:56:41;19.30;50.90
70807;DHT22;58882;52.170;5.386;2022-11-12T18:59:53;19.30;50.80
70807;DHT22;58882;52.170;5.386;2022-11-12T19:02:45;19.30;50.90
70807;DHT22;58882;52.170;5.386;2022-11-12T19:05:58;19.30;50.80
70807;DHT22;58882;52.170;5.386;2022-11-12T19:09:00;19.30;50.90
70807;DHT22;58882;52.170;5.386;2022-11-12T19:12:14;19.30;51.10
70807;DHT22;58882;52.170;5.386;2022-11-12T19:15:13;19.20;51.00
70807;DHT22;58882;52.170;5.386;2022-11-12T19:18:25;19.30;51.10
70807;DHT22;58882;52.170;5.386;2022-11-12T19:21:21;19.20;51.00
70807;DHT22;58882;52.170;5.386;2022-11-12T19:24:33;19.20;51.00
70807;DHT22;58882;52.170;5.386;2022-11-12T19:27:25;19.20;51.00
70807;DHT22;58882;52.170;5.386;2022-11-12T19:30:36;19.20;51.10
70807;DHT22;58882;52.170;5.386;2022-11-12T19:33:42;19.20;51.00
70807;DHT22;58882;52.170;5.386;2022-11-12T19:36:40;19.20;51.00
70807;DHT22;58882;52.170;5.386;2022-11-12T19:40:06;19.20;50.90
70807;DHT22;58882;52.170;5.386;2022-11-12T19:42:58;19.20;50.90
70807;DHT22;58882;52.170;5.386;2022-11-12T19:46:11;19.20;50.80
70807;DHT22;58882;52.170;5.386;2022-11-12T19:49:02;19.10;50.70
70807;DHT22;58882;52.170;5.386;2022-11-12T19:52:15;19.10;51.70
70807;DHT22;58882;52.170;5.386;2022-11-12T19:55:15;19.10;50.60
70807;DHT22;58882;52.170;5.386;2022-11-12T19:58:27;19.10;50.50
70807;DHT22;58882;52.170;5.386;2022-11-12T20:01:26;19.10;50.50
70807;DHT22;58882;52.170;5.386;2022-11-12T20:04:37;19.10;50.50
70807;DHT22;58882;52.170;5.386;2022-11-12T20:07:36;19.00;50.30
70807;DHT22;58882;52.170;5.386;2022-11-12T20:10:41;19.10;50.50
70807;DHT22;58882;52.170;5.386;2022-11-12T20:13:40;19.00;50.30
70807;DHT22;58882;52.170;5.386;2022-11-12T20:16:52;19.00;50.30
70807;DHT22;58882;52.170;5.386;2022-11-12T20:19:44;19.00;50.30
70807;DHT22;58882;52.170;5.386;2022-11-12T20:22:56;19.00;50.30
70807;DHT22;58882;52.170;5.386;2022-11-12T20:26:01;19.00;50.30
70807;DHT22;58882;52.170;5.386;2022-11-12T20:29:06;19.00;50.20
70807;DHT22;58882;52.170;5.386;2022-11-12T20:32:11;19.00;50.30
70807;DHT22;58882;52.170;5.386;2022-11-12T20:35:23;18.90;50.10
70807;DHT22;58882;52.170;5.386;2022-11-12T20:38:22;18.90;50.10
70807;DHT22;58882;52.170;5.386;2022-11-12T20:41:28;18.90;50.20
70807;DHT22;58882;52.170;5.386;2022-11-12T20:44:28;18.90;51.10
70807;DHT22;58882;52.170;5.386;2022-11-12T20:47:40;18.90;50.10
70807;DHT22;58882;52.170;5.386;2022-11-12T20:50:32;18.90;50.10
70807;DHT22;58882;52.170;5.386;2022-11-12T20:54:04;18.90;50.10